Time;durP1;ratioP1;P1;durP2;ratioP2;P2;SDS_P1;SDS_P2;PMS_P1;PMS_P2;Temp;Humidity;BMP_temperature;BMP_pressure;BME280_temperature;BME280_humidity;BME280_pressure;Samples;Min_cycle;Max_cycle;Signal;HPM_P1;HPM_P2
2023/03/05 00:00:18;;;;;;;36.38;16.55;;;;;;;7.03;100.00;100232.50;4956469;29;20038;-84
2023/03/05 00:02:43;;;;;;;42.15;17.65;;;;;;;6.60;100.00;100235.75;4938947;29;20167;-84
2023/03/05 00:05:09;;;;;;;37.08;16.63;;;;;;;6.50;100.00;100240.22;4940109;29;20406;-84
2023/03/05 00:07:35;;;;;;;33.08;16.52;;;;;;;6.79;100.00;100231.41;4924097;29;20391;-82
2023/03/05 00:10:03;;;;;;;40.22;16.42;;;;;;;6.73;100.00;100230.97;4959054;29;20062;-84
2023/03/05 00:12:31;;;;;;;34.00;16.40;;;;;;;6.81;100.00;100227.63;4941625;29;20027;-83
2023/03/05 00:14:57;;;;;;;32.70;16.45;;;;;;;6.81;100.00;100232.06;4924756;29;20039;-84
2023/03/05 00:17:22;;;;;;;32.50;16.35;;;;;;;6.41;100.00;100234.97;4957472;29;20091;-83
2023/03/05 00:19:48;;;;;;;34.97;16.10;;;;;;;6.29;100.00;100226.44;4957492;29;20034;-82
2023/03/05 00:22:13;;;;;;;32.28;15.85;;;;;;;6.57;100.00;100225.50;4957877;29;20098;-84
2023/03/05 00:24:39;;;;;;;29.65;15.82;;;;;;;6.51;100.00;100217.34;4957989;29;20031;-83
2023/03/05 00:27:04;;;;;;;30.73;16.25;;;;;;;6.68;100.00;100222.69;4957863;29;20039;-83
2023/03/05 00:29:30;;;;;;;29.42;14.82;;;;;;;6.72;100.00;100224.09;4958146;29;20039;-85
2023/03/05 00:31:55;;;;;;;29.73;14.95;;;;;;;6.56;100.00;100223.84;4924762;29;20043;-83
2023/03/05 00:34:21;;;;;;;29.80;15.23;;;;;;;6.67;100.00;100228.09;4942762;29;20113;-84
2023/03/05 00:36:52;;;;;;;29.45;14.98;;;;;;;6.68;100.00;100222.69;4970395;29;20091;-82
2023/03/05 00:39:20;;;;;;;26.10;14.10;;;;;;;7.02;100.00;100230.03;4963724;29;20042;-83
2023/03/05 00:41:48;;;;;;;28.42;14.80;;;;;;;6.69;100.00;100219.06;4929272;29;20039;-83
2023/03/05 00:44:20;;;;;;;31.48;14.48;;;;;;;6.54;100.00;100220.53;4944770;29;20126;-83
2023/03/05 00:46:46;;;;;;;19.98;10.02;;;;;;;6.72;100.00;100221.44;4961482;29;20035;-83
2023/03/05 00:49:11;;;;;;;33.10;14.40;;;;;;;6.33;100.00;100222.50;4945002;29;20039;-84
2023/03/05 00:51:40;;;;;;;29.70;14.80;;;;;;;6.28;100.00;100219.50;4962109;29;20035;-85
2023/03/05 00:54:06;;;;;;;28.88;13.40;;;;;;;6.53;100.00;100216.22;4929198;29;20049;-83
2023/03/05 00:56:31;;;;;;;31.02;14.18;;;;;;;6.82;100.00;100217.94;4946272;29;20032;-83
2023/03/05 00:59:16;;;;;;;32.08;14.48;;;;;;;6.91;100.00;100215.25;4961900;29;20051;-86
2023/03/05 01:01:42;;;;;;;33.80;14.73;;;;;;;6.87;100.00;100221.78;4946340;29;20051;-86
2023/03/05 01:04:07;;;;;;;32.75;14.82;;;;;;;7.02;100.00;100203.69;4950996;29;20024;-88
2023/03/05 01:06:33;;;;;;;31.45;14.13;;;;;;;6.85;100.00;100207.09;4962137;29;20039;-93
2023/03/05 01:09:20;;;;;;;31.55;14.55;;;;;;;6.87;100.00;100213.03;4947189;29;20066;-89
2023/03/05 01:11:47;;;;;;;30.80;13.85;;;;;;;6.60;100.00;100204.16;4946324;29;20079;-91
2023/03/05 01:14:13;;;;;;;30.73;14.60;;;;;;;6.29;100.00;100201.91;4945262;29;20113;-89
2023/03/05 01:16:39;;;;;;;27.67;13.77;;;;;;;6.42;100.00;100199.78;4960374;29;20043;-90
2023/03/05 01:19:04;;;;;;;29.00;12.23;;;;;;;6.75;100.00;100204.50;4959563;29;20067;-89
2023/03/05 01:21:30;;;;;;;27.30;11.85;;;;;;;6.97;100.00;100198.84;4942871;29;20090;-89
2023/03/05 01:23:55;;;;;;;23.92;11.77;;;;;;;7.14;100.00;100191.97;4961224;29;20039;-89
2023/03/05 01:26:21;;;;;;;25.92;12.30;;;;;;;6.81;100.00;100189.94;4959877;29;20051;-86
2023/03/05 01:28:47;;;;;;;26.60;12.65;;;;;;;6.87;100.00;100191.97;4959170;29;20066;-86
2023/03/05 01:31:13;;;;;;;23.77;12.25;;;;;;;6.28;100.00;100185.28;4941761;29;20039;-85
2023/03/05 01:33:38;;;;;;;27.15;11.60;;;;;;;6.06;100.00;100189.09;4959478;29;20070;-86
2023/03/05 01:36:11;;;;;;;25.52;12.82;;;;;;;6.22;100.00;100191.13;4959052;29;20039;-85
2023/03/05 01:38:37;;;;;;;19.95;8.80;;;;;;;6.14;100.00;100186.56;4959220;29;20043;-84
2023/03/05 01:41:02;;;;;;;22.60;11.18;;;;;;;6.07;100.00;100184.63;4959595;29;20081;-87
2023/03/05 01:43:29;;;;;;;28.70;12.10;;;;;;;5.95;100.00;100188.41;4959278;29;20407;-86
2023/03/05 01:46:16;;;;;;;25.67;11.27;;;;;;;5.86;100.00;100186.63;4958097;28;20046;-85
2023/03/05 01:48:56;;;;;;;32.50;10.95;;;;;;;5.78;100.00;100191.69;4959369;29;20038;-87
2023/03/05 01:51:25;;;;;;;22.98;11.00;;;;;;;5.53;100.00;100196.56;4959001;29;20046;-86
2023/03/05 01:53:54;;;;;;;23.13;10.88;;;;;;;5.42;100.00;100193.22;4958608;29;20038;-86
2023/03/05 01:56:20;;;;;;;21.92;10.32;;;;;;;5.37;100.00;100188.38;4941926;29;20502;-84
2023/03/05 01:58:46;;;;;;;27.40;10.82;;;;;;;5.71;100.00;100188.78;4941203;29;20066;-85
2023/03/05 02:01:12;;;;;;;22.02;10.60;;;;;;;5.90;100.00;100183.53;4940823;29;20071;-85
2023/03/05 02:03:39;;;;;;;18.55;9.75;;;;;;;5.79;100.00;100188.94;4958692;29;20050;-87
2023/03/05 02:06:04;;;;;;;18.55;9.13;;;;;;;5.80;100.00;100187.16;4958288;29;20063;-87
2023/03/05 02:08:30;;;;;;;21.30;9.82;;;;;;;5.48;100.00;100192.66;4940157;29;20523;-85
2023/03/05 02:10:56;;;;;;;20.70;9.73;;;;;;;5.22;100.00;100192.38;4940111;29;20035;-86
2023/03/05 02:13:28;;;;;;;24.23;9.48;;;;;;;5.21;100.00;100182.81;4957494;29;20083;-87
2023/03/05 02:15:56;;;;;;;20.90;10.52;;;;;;;5.37;100.00;100185.75;4956820;29;20047;-84
2023/03/05 02:18:23;;;;;;;17.67;9.90;;;;;;;5.24;100.00;100184.38;4957821;29;20039;-84
2023/03/05 02:20:49;;;;;;;23.23;10.63;;;;;;;5.12;100.00;100186.28;4956932;29;20478;-85
2023/03/05 02:23:16;;;;;;;22.55;10.43;;;;;;;5.22;100.00;100192.38;4940096;29;20386;-85
2023/03/05 02:25:42;;;;;;;24.75;10.20;;;;;;;5.29;100.00;100193.50;4925699;29;20043;-85
2023/03/05 02:28:10;;;;;;;19.30;9.85;;;;;;;5.31;100.00;100191.56;4956970;29;20360;-87
2023/03/05 02:30:37;;;;;;;21.42;9.38;;;;;;;5.61;100.00;100187.97;4957134;29;20033;-85
2023/03/05 02:33:03;;;;;;;19.40;9.52;;;;;;;5.51;100.00;100187.97;4939476;29;20043;-85
2023/03/05 02:35:29;;;;;;;20.02;10.38;;;;;;;5.49;100.00;100189.91;4957029;29;20047;-85
2023/03/05 02:37:55;;;;;;;22.50;10.82;;;;;;;5.48;100.00;100180.38;4939482;29;20153;-87
2023/03/05 02:40:21;;;;;;;20.50;10.85;;;;;;;5.40;100.00;100182.84;4957559;29;20031;-85
2023/03/05 02:42:48;;;;;;;25.58;9.80;;;;;;;5.69;100.00;100167.91;4940198;29;20039;-86
2023/03/05 02:45:14;;;;;;;24.70;10.13;;;;;;;5.66;100.00;100168.19;4952162;29;20042;-82
2023/03/05 02:47:41;;;;;;;26.40;10.48;;;;;;;5.81;100.00;100168.59;4964238;29;20036;-84
2023/03/05 02:50:09;;;;;;;23.15;9.77;;;;;;;5.71;100.00;100163.34;4940371;29;20035;-84
2023/03/05 02:52:35;;;;;;;24.48;12.02;;;;;;;5.52;100.00;100162.53;4939339;29;20039;-85
2023/03/05 02:55:01;;;;;;;23.58;10.82;;;;;;;5.51;100.00;100161.69;4939368;29;20043;-85
2023/03/05 03:01:16;;;;;;;22.80;11.13;;;;;;;5.67;100.00;100161.94;4979759;28;20062;-88
2023/03/05 03:03:42;;;;;;;23.35;11.63;;;;;;;5.48;100.00;100156.72;4962246;29;20039;-89
2023/03/05 03:06:08;;;;;;;28.52;11.30;;;;;;;5.22;100.00;100160.84;4977470;29;20047;-85
2023/03/05 03:08:34;;;;;;;24.35;11.48;;;;;;;5.02;100.00;100169.66;4960065;29;20042;-91
2023/03/05 03:11:08;;;;;;;31.15;11.27;;;;;;;5.17;100.00;100163.06;4939308;29;20066;-84
2023/03/05 03:13:39;;;;;;;21.65;9.82;;;;;;;5.29;100.00;100163.75;4941119;29;20402;-89
2023/03/05 03:16:07;;;;;;;21.80;10.65;;;;;;;5.12;100.00;100150.34;4957671;29;20035;-91
2023/03/05 03:18:34;;;;;;;22.35;10.68;;;;;;;5.26;100.00;100150.91;4954754;29;20035;-85
2023/03/05 03:21:00;;;;;;;31.65;11.00;;;;;;;5.38;100.00;100155.03;4954826;29;20031;-85
2023/03/05 03:23:26;;;;;;;25.38;11.10;;;;;;;5.59;100.00;100151.31;4937383;29;20050;-85
2023/03/05 03:25:51;;;;;;;21.23;11.13;;;;;;;5.46;100.00;100147.31;4937535;29;20061;-85
2023/03/05 03:28:17;;;;;;;26.50;12.60;;;;;;;5.45;100.00;100148.28;4954213;29;20118;-85
2023/03/05 03:30:43;;;;;;;24.83;10.65;;;;;;;5.65;100.00;100155.19;4954589;29;20027;-86
2023/03/05 03:33:08;;;;;;;25.92;10.52;;;;;;;5.69;100.00;100164.47;4953014;29;20149;-83
2023/03/05 03:35:34;;;;;;;23.80;10.65;;;;;;;5.52;100.00;100158.09;4936906;29;20097;-84
2023/03/05 03:37:59;;;;;;;21.45;11.60;;;;;;;5.39;100.00;100159.34;4954473;29;20035;-84
2023/03/05 03:40:25;;;;;;;27.23;11.80;;;;;;;5.29;100.00;100153.25;4922274;29;20049;-86
2023/03/05 03:42:52;;;;;;;22.40;10.80;;;;;;;5.20;100.00;100162.78;4938969;29;20082;-86
2023/03/05 03:45:17;;;;;;;23.95;10.52;;;;;;;5.09;100.00;100161.13;4944432;29;20106;-86
2023/03/05 03:47:43;;;;;;;21.83;10.40;;;;;;;4.63;100.00;100156.44;4962754;29;20070;-90
2023/03/05 03:50:09;;;;;;;19.23;10.40;;;;;;;4.71;100.00;100155.75;4956516;29;20074;-86
2023/03/05 03:52:35;;;;;;;27.38;10.63;;;;;;;4.80;100.00;100154.97;4956326;29;20062;-87
2023/03/05 03:55:00;;;;;;;20.33;9.80;;;;;;;4.79;100.00;100144.59;4955976;29;20122;-87
2023/03/05 03:57:29;;;;;;;19.60;10.73;;;;;;;4.29;100.00;100149.81;4955742;29;20044;-89
2023/03/05 03:59:54;;;;;;;24.25;10.32;;;;;;;4.29;100.00;100141.94;4938526;29;20190;-87
2023/03/05 04:02:20;;;;;;;20.75;10.30;;;;;;;4.44;100.00;100145.84;4938727;29;20118;-87
2023/03/05 04:04:45;;;;;;;24.05;10.68;;;;;;;4.20;100.00;100140.13;4955995;29;20046;-87
2023/03/05 04:07:11;;;;;;;25.58;9.75;;;;;;;4.13;100.00;100144.22;4956592;29;20058;-87
2023/03/05 04:09:37;;;;;;;28.70;11.30;;;;;;;4.15;100.00;100140.50;4958832;28;20093;-88
2023/03/05 04:12:03;;;;;;;23.25;10.30;;;;;;;4.13;100.00;100145.03;4942972;29;20035;-85
2023/03/05 04:14:33;;;;;;;29.08;10.93;;;;;;;4.06;100.00;100140.44;4961502;29;20043;-88
2023/03/05 04:16:59;;;;;;;20.50;11.65;;;;;;;4.02;100.00;100131.16;4961005;29;20083;-86
2023/03/05 04:19:24;;;;;;;20.77;10.38;;;;;;;4.23;100.00;100136.38;4960605;29;20039;-87
2023/03/05 04:21:50;;;;;;;24.08;11.35;;;;;;;4.17;100.00;100132.50;4943556;29;20037;-87
2023/03/05 04:24:15;;;;;;;28.27;12.15;;;;;;;3.89;100.00;100130.53;4970653;29;20094;-84
2023/03/05 04:26:40;;;;;;;20.42;10.48;;;;;;;3.86;100.00;100130.81;4970626;29;20046;-86
2023/03/05 04:29:06;;;;;;;19.77;11.63;;;;;;;3.87;100.00;100127.22;4962037;29;20070;-88
2023/03/05 04:31:31;;;;;;;24.05;11.98;;;;;;;4.02;100.00;100118.06;4961834;29;20066;-85
2023/03/05 04:33:58;;;;;;;22.17;11.80;;;;;;;3.95;100.00;100116.91;4961841;29;20066;-87
2023/03/05 04:36:24;;;;;;;27.15;10.27;;;;;;;3.98;100.00;100114.03;4960441;29;20038;-88
2023/03/05 04:38:49;;;;;;;26.30;11.65;;;;;;;3.93;100.00;100117.06;4942233;29;20039;-87
2023/03/05 04:41:15;;;;;;;21.40;9.82;;;;;;;3.91;100.00;100110.28;4957766;29;20035;-86
2023/03/05 04:43:40;;;;;;;22.40;10.48;;;;;;;4.15;100.00;100122.13;4941100;29;20027;-86
2023/03/05 04:46:06;;;;;;;30.80;10.88;;;;;;;4.39;100.00;100124.44;4958010;29;20126;-86
2023/03/05 04:48:31;;;;;;;20.42;10.18;;;;;;;4.68;100.00;100117.50;4957723;29;20398;-85
2023/03/05 04:50:57;;;;;;;26.63;11.13;;;;;;;4.86;100.00;100122.09;4957649;29;20039;-87
2023/03/05 04:53:22;;;;;;;21.58;10.25;;;;;;;4.91;100.00;100117.25;4957563;29;20032;-88
2023/03/05 04:55:54;;;;;;;21.67;10.52;;;;;;;5.01;100.00;100120.72;4957307;29;20050;-85
2023/03/05 04:58:21;;;;;;;21.27;9.85;;;;;;;5.14;100.00;100116.88;4958870;29;20038;-85
2023/03/05 05:00:46;;;;;;;19.73;9.07;;;;;;;5.14;100.00;100110.78;4924498;29;20367;-87
2023/03/05 05:03:12;;;;;;;25.27;9.95;;;;;;;5.28;100.00;100113.00;4957223;29;20067;-88
2023/03/05 05:05:38;;;;;;;22.13;9.45;;;;;;;5.19;100.00;100119.09;4939513;29;20055;-87
2023/03/05 05:08:03;;;;;;;18.92;10.40;;;;;;;5.14;100.00;100122.13;4939849;29;20050;-86
2023/03/05 05:10:30;;;;;;;20.13;9.80;;;;;;;5.04;100.00;100121.28;4957068;29;20168;-85
2023/03/05 05:12:56;;;;;;;19.42;10.02;;;;;;;5.00;100.00;100119.91;4957210;29;20054;-85
2023/03/05 05:15:21;;;;;;;24.02;9.50;;;;;;;5.03;100.00;100109.13;4957485;29;20031;-84
2023/03/05 05:17:47;;;;;;;14.63;8.50;;;;;;;4.64;100.00;100110.84;4957653;29;20031;-85
2023/03/05 05:20:13;;;;;;;17.95;9.40;;;;;;;4.38;100.00;100114.06;4939092;29;20039;-86
2023/03/05 05:22:39;;;;;;;23.35;9.43;;;;;;;4.36;100.00;100106.34;4957150;29;20031;-86
2023/03/05 05:25:05;;;;;;;23.92;9.98;;;;;;;4.26;100.00;100110.72;4957368;29;20094;-85
2023/03/05 05:27:31;;;;;;;18.65;9.48;;;;;;;4.17;100.00;100103.66;4957367;29;20032;-84
2023/03/05 05:29:57;;;;;;;22.33;9.25;;;;;;;4.09;100.00;100104.31;4956641;29;20039;-84
2023/03/05 05:32:23;;;;;;;26.88;9.35;;;;;;;4.01;100.00;100103.31;4956701;29;20372;-85
2023/03/05 05:34:54;;;;;;;18.23;9.20;;;;;;;3.95;100.00;100109.06;4956709;29;20395;-83
2023/03/05 05:37:19;;;;;;;22.67;8.35;;;;;;;3.91;100.00;100107.69;4956611;29;20035;-87
2023/03/05 05:39:48;;;;;;;18.65;8.55;;;;;;;3.94;100.00;100105.63;4956516;29;20105;-84
2023/03/05 05:42:15;;;;;;;16.33;8.52;;;;;;;4.17;100.00;100119.41;4956594;29;20043;-85
2023/03/05 05:44:41;;;;;;;16.88;8.57;;;;;;;4.45;100.00;100113.41;4956598;29;20498;-83
2023/03/05 05:47:07;;;;;;;16.00;9.02;;;;;;;4.33;100.00;100119.75;4956875;29;20076;-84
2023/03/05 05:49:32;;;;;;;22.25;8.68;;;;;;;4.27;100.00;100117.66;4939419;29;20054;-84
2023/03/05 05:51:58;;;;;;;18.00;8.85;;;;;;;4.24;100.00;100120.53;4956840;29;20042;-85
2023/03/05 05:54:23;;;;;;;16.42;8.75;;;;;;;4.24;100.00;100119.69;4960961;28;20086;-84
2023/03/05 05:56:49;;;;;;;21.08;7.90;;;;;;;4.39;100.00;100126.22;4964205;28;20087;-88
2023/03/05 05:59:15;;;;;;;26.88;10.27;;;;;;;4.45;100.00;100129.16;4963191;28;20078;-86
2023/03/05 06:01:40;;;;;;;22.40;9.90;;;;;;;4.66;100.00;100132.56;4980363;28;20062;-83
2023/03/05 06:04:06;;;;;;;26.83;11.98;;;;;;;4.79;100.00;100132.31;4969083;28;20079;-83
2023/03/05 06:06:33;;;;;;;24.10;11.38;;;;;;;5.09;100.00;100134.00;4944788;29;20035;-87
2023/03/05 06:09:00;;;;;;;21.95;10.27;;;;;;;5.40;100.00;100138.16;4959184;29;20348;-84
2023/03/05 06:11:26;;;;;;;24.15;10.70;;;;;;;5.31;100.00;100139.00;4958109;29;20039;-86
2023/03/05 06:13:52;;;;;;;21.95;9.30;;;;;;;5.78;100.00;100132.06;4957830;29;20058;-83
2023/03/05 06:16:22;;;;;;;24.90;9.07;;;;;;;5.43;100.00;100137.91;4940426;29;20098;-86
2023/03/05 06:18:49;;;;;;;18.70;8.30;;;;;;;6.01;100.00;100137.84;4924590;29;20534;-86
2023/03/05 06:21:17;;;;;;;20.50;8.05;;;;;;;5.73;100.00;100150.06;4957435;29;20502;-88
2023/03/05 06:23:43;;;;;;;18.83;8.60;;;;;;;6.70;100.00;100149.63;4957221;29;20023;-88
2023/03/05 06:26:12;;;;;;;15.13;7.85;;;;;;;6.96;100.00;100148.97;4940865;29;20430;-87
2023/03/05 06:28:38;;;;;;;19.80;8.60;;;;;;;7.42;100.00;100159.31;4941315;29;20043;-87
2023/03/05 06:31:09;;;;;;;18.92;8.02;;;;;;;8.11;100.00;100145.34;4959635;28;20043;-88
2023/03/05 06:33:36;;;;;;;14.10;7.68;;;;;;;8.66;100.00;100157.22;4956830;29;20031;-88
2023/03/05 06:36:03;;;;;;;15.25;8.38;;;;;;;8.56;97.21;100159.16;4939998;29;20043;-88
2023/03/05 06:38:29;;;;;;;16.00;8.55;;;;;;;8.33;98.44;100160.69;4956450;29;20035;-88
2023/03/05 06:40:54;;;;;;;19.02;8.20;;;;;;;8.32;100.00;100159.00;4957001;29;20031;-88
2023/03/05 06:43:20;;;;;;;21.90;8.27;;;;;;;8.76;98.77;100168.50;4956621;29;20399;-88
2023/03/05 06:45:45;;;;;;;28.90;8.98;;;;;;;8.43;99.16;100161.41;4956806;29;20046;-87
2023/03/05 06:48:11;;;;;;;15.23;8.25;;;;;;;8.47;100.00;100172.47;4939636;29;20043;-88
2023/03/05 06:50:39;;;;;;;23.90;9.25;;;;;;;9.32;93.08;100169.63;4958424;29;20045;-86
2023/03/05 06:53:04;;;;;;;20.15;9.60;;;;;;;9.31;90.50;100175.94;4939036;29;20023;-87
2023/03/05 06:55:30;;;;;;;22.75;9.32;;;;;;;9.86;87.82;100169.03;4938565;29;20035;-86
2023/03/05 06:57:55;;;;;;;21.02;8.98;;;;;;;10.16;84.08;100177.31;4956483;29;20550;-87
2023/03/05 07:00:21;;;;;;;25.60;10.40;;;;;;;10.92;79.10;100166.97;4956987;29;20060;-86
2023/03/05 07:02:46;;;;;;;25.45;11.43;;;;;;;11.52;74.23;100169.78;4957316;29;20035;-84
2023/03/05 07:05:12;;;;;;;23.33;11.43;;;;;;;11.89;69.83;100174.34;4957123;29;20063;-86
2023/03/05 07:07:38;;;;;;;21.50;10.45;;;;;;;12.97;65.12;100175.50;4957262;29;20545;-89
2023/03/05 07:10:06;;;;;;;21.52;10.00;;;;;;;13.27;61.99;100178.94;4965858;29;20039;-85
2023/03/05 07:12:33;;;;;;;17.42;8.25;;;;;;;13.62;59.94;100187.94;4949048;29;20043;-85
2023/03/05 07:14:59;;;;;;;17.30;10.00;;;;;;;11.62;66.16;100180.16;4962537;29;20413;-85
2023/03/05 07:17:26;;;;;;;17.15;9.45;;;;;;;11.95;65.14;100181.59;4933221;29;20526;-86
2023/03/05 07:19:51;;;;;;;15.82;8.52;;;;;;;12.79;65.08;100177.72;4969907;29;20051;-85
2023/03/05 07:22:20;;;;;;;18.13;8.57;;;;;;;12.81;63.57;100181.03;4965628;29;20039;-84
2023/03/05 07:24:49;;;;;;;17.67;8.68;;;;;;;13.45;59.76;100187.34;4930748;29;20047;-88
2023/03/05 07:27:16;;;;;;;17.52;9.20;;;;;;;12.00;68.55;100187.16;4963438;29;20042;-86
2023/03/05 07:29:41;;;;;;;15.35;8.02;;;;;;;12.08;65.11;100180.97;4962568;29;20479;-87
2023/03/05 07:32:07;;;;;;;17.77;8.13;;;;;;;12.42;66.69;100173.34;4962990;29;20039;-89
2023/03/05 07:34:32;;;;;;;20.35;8.95;;;;;;;11.84;69.00;100177.50;4960874;29;20106;-85
2023/03/05 07:36:58;;;;;;;15.07;7.57;;;;;;;13.48;62.38;100186.16;4959025;29;20435;-86
2023/03/05 07:39:24;;;;;;;14.05;8.32;;;;;;;13.65;60.64;100180.41;4957094;29;20046;-86
2023/03/05 07:41:50;;;;;;;18.55;7.68;;;;;;;14.95;56.13;100184.19;4942079;29;20910;-88
2023/03/05 07:44:16;;;;;;;15.23;7.60;;;;;;;13.92;57.67;100192.91;4965812;29;20137;-89
2023/03/05 07:46:42;;;;;;;14.63;7.05;;;;;;;15.37;55.03;100185.81;4940815;29;20058;-87
2023/03/05 07:49:08;;;;;;;15.52;7.68;;;;;;;16.01;50.36;100178.94;4938222;29;20031;-85
2023/03/05 07:51:34;;;;;;;14.32;7.47;;;;;;;15.91;51.84;100185.72;4955587;29;20038;-85
2023/03/05 07:54:00;;;;;;;21.10;8.65;;;;;;;13.86;57.02;100182.22;4955490;29;20463;-85
2023/03/05 07:56:34;;;;;;;20.35;7.90;;;;;;;13.42;59.50;100183.22;4954771;29;20061;-87
2023/03/05 07:59:03;;;;;;;14.05;7.85;;;;;;;13.42;60.15;100171.75;4939538;29;20035;-90
2023/03/05 08:01:30;;;;;;;21.15;8.75;;;;;;;13.50;59.75;100173.47;4939212;28;20043;-86
2023/03/05 08:03:55;;;;;;;15.63;7.95;;;;;;;13.14;64.74;100169.00;4955023;28;20046;-84
2023/03/05 08:06:21;;;;;;;17.35;8.50;;;;;;;13.61;61.94;100165.81;4953579;28;20035;-87
2023/03/05 08:08:46;;;;;;;16.40;8.27;;;;;;;14.38;56.90;100163.19;4962176;28;20393;-87
2023/03/05 08:11:14;;;;;;;18.48;8.45;;;;;;;13.88;57.20;100166.88;4957713;28;20043;-87
2023/03/05 08:13:41;;;;;;;17.42;8.18;;;;;;;13.53;57.76;100170.41;4957939;28;20028;-89
2023/03/05 08:16:12;;;;;;;17.85;8.23;;;;;;;12.75;61.56;100161.31;4963655;28;20022;-85
2023/03/05 08:18:41;;;;;;;23.83;9.18;;;;;;;12.74;63.10;100164.97;4923743;28;20126;-85
2023/03/05 08:21:15;;;;;;;17.08;8.45;;;;;;;13.84;58.60;100165.59;4961585;28;20446;-87
2023/03/05 08:23:41;;;;;;;20.08;8.48;;;;;;;15.50;53.41;100164.50;4930230;28;20402;-85
2023/03/05 08:26:18;;;;;;;17.30;8.93;;;;;;;16.13;48.51;100164.97;4962061;28;20035;-86
2023/03/05 08:28:49;;;;;;;22.73;9.05;;;;;;;15.58;51.02;100171.53;4939771;29;20415;-87
2023/03/05 08:31:16;;;;;;;21.70;8.57;;;;;;;16.95;48.67;100168.72;4964613;28;20031;-87
2023/03/05 08:33:42;;;;;;;17.35;8.55;;;;;;;18.19;44.22;100168.19;4960254;28;20514;-85
2023/03/05 08:36:08;;;;;;;15.40;7.93;;;;;;;18.97;41.12;100167.38;4972888;28;20070;-87
2023/03/05 08:38:35;;;;;;;20.42;8.90;;;;;;;18.66;40.69;100159.47;4954645;28;20055;-86
2023/03/05 08:41:01;;;;;;;22.35;9.40;;;;;;;17.59;42.80;100162.47;4951068;28;20448;-86
2023/03/05 08:43:26;;;;;;;14.68;8.77;;;;;;;17.57;43.97;100161.84;4957453;28;20501;-81
2023/03/05 08:45:52;;;;;;;16.77;9.20;;;;;;;16.15;46.52;100158.38;4962198;28;20047;-83
2023/03/05 08:48:26;;;;;;;17.63;9.07;;;;;;;16.46;46.36;100147.03;4959350;28;20035;-92
2023/03/05 08:50:55;;;;;;;15.32;9.43;;;;;;;16.94;45.02;100159.03;4943022;29;20174;-90
2023/03/05 08:53:21;;;;;;;21.55;10.15;;;;;;;17.16;44.55;100156.06;4942022;28;20059;-90
2023/03/05 08:58:30;;;;;;;23.17;9.77;;;;;;;15.69;48.36;100152.19;4978884;28;20119;-88
2023/03/05 09:00:55;;;;;;;24.63;11.00;;;;;;;15.78;48.61;100145.63;4974869;28;20024;-88
2023/03/05 09:03:22;;;;;;;25.73;11.07;;;;;;;16.46;47.05;100147.03;4944106;29;20059;-87
2023/03/05 09:05:48;;;;;;;19.20;10.13;;;;;;;16.56;45.52;100152.81;4943459;29;20474;-88
2023/03/05 09:08:13;;;;;;;19.38;10.30;;;;;;;16.82;46.17;100144.69;4923299;29;20359;-90
2023/03/05 09:10:43;;;;;;;22.90;10.50;;;;;;;16.56;47.15;100135.91;4942574;29;20051;-89
2023/03/05 09:13:09;;;;;;;29.38;11.95;;;;;;;15.48;49.97;100137.16;4958451;29;20062;-89
2023/03/05 09:15:35;;;;;;;24.77;10.98;;;;;;;16.58;49.00;100137.34;4959543;29;20035;-89
2023/03/05 09:18:02;;;;;;;21.23;11.20;;;;;;;17.00;46.63;100139.44;4944104;29;20122;-89
2023/03/05 09:20:27;;;;;;;18.30;10.82;;;;;;;16.32;47.77;100132.03;4945632;29;20040;-87
2023/03/05 09:22:53;;;;;;;23.10;10.88;;;;;;;16.75;47.45;100135.84;4966774;29;20027;-89
2023/03/05 09:25:19;;;;;;;25.92;10.38;;;;;;;16.72;46.10;100141.63;4961294;29;20502;-89
2023/03/05 09:27:45;;;;;;;24.13;11.15;;;;;;;16.87;47.20;100136.84;4946640;29;20046;-90
2023/03/05 09:30:14;;;;;;;17.38;9.98;;;;;;;16.87;46.81;100136.84;4963716;29;20095;-90
2023/03/05 09:32:40;;;;;;;18.25;10.10;;;;;;;16.73;48.22;100135.25;4963404;29;20055;-90
2023/03/05 09:35:06;;;;;;;17.08;9.10;;;;;;;16.46;50.06;100130.97;4963415;29;20109;-89
2023/03/05 09:37:32;;;;;;;21.90;8.90;;;;;;;16.52;47.34;100127.47;4962946;29;20051;-90
2023/03/05 09:39:57;;;;;;;19.13;9.43;;;;;;;16.54;47.46;100125.38;4947115;29;20387;-89
2023/03/05 09:43:14;;;;;;;18.55;9.15;;;;;;;16.28;49.56;100123.59;4930472;29;20035;-92
2023/03/05 09:46:01;;;;;;;21.48;10.60;;;;;;;16.21;51.46;100113.94;4882450;29;20068;-88
2023/03/05 09:49:01;;;;;;;23.55;9.43;;;;;;;16.04;51.65;100117.03;4881759;29;20234;-92
2023/03/05 09:51:36;;;;;;;17.65;10.07;;;;;;;15.52;52.79;100109.03;4880216;29;20048;-90
2023/03/05 09:54:05;;;;;;;21.27;10.15;;;;;;;15.37;54.43;100111.06;4868538;29;20049;-87
2023/03/05 09:56:40;;;;;;;22.35;10.88;;;;;;;15.44;55.70;100112.69;4957001;28;20061;-89
2023/03/05 09:59:34;;;;;;;27.23;11.50;;;;;;;14.82;58.86;100102.25;4951529;28;20054;-85
2023/03/05 10:02:04;;;;;;;25.17;12.25;;;;;;;14.45;62.19;100100.88;4936739;28;20058;-83
2023/03/05 10:04:58;;;;;;;24.95;12.70;;;;;;;15.08;60.74;100100.72;4937136;29;20051;-85
2023/03/05 10:07:30;;;;;;;27.50;12.50;;;;;;;15.10;58.36;100101.34;4951488;28;20035;-86
2023/03/05 10:10:01;;;;;;;28.63;13.70;;;;;;;16.15;56.05;100088.03;4944946;28;20023;-81
2023/03/05 10:12:49;;;;;;;28.02;14.90;;;;;;;17.36;53.54;100092.50;4959683;28;20119;-91
2023/03/05 10:15:40;;;;;;;31.63;13.90;;;;;;;17.86;50.04;100088.84;4944869;28;20045;-91
2023/03/05 10:18:06;;;;;;;24.90;14.07;;;;;;;18.89;48.39;100089.78;4964271;28;20070;-88
2023/03/05 10:20:55;;;;;;;25.67;14.55;;;;;;;20.18;44.87;100093.63;4926001;28;20043;-89
2023/03/05 10:23:45;;;;;;;25.40;14.60;;;;;;;19.38;46.24;100088.72;4955855;28;20035;-90
2023/03/05 10:26:17;;;;;;;27.95;14.90;;;;;;;19.06;46.75;100085.44;4957991;29;20102;-90
2023/03/05 10:28:55;;;;;;;31.20;15.23;;;;;;;19.99;44.87;100082.13;4959795;28;20062;-90
2023/03/05 10:31:59;;;;;;;30.60;14.80;;;;;;;20.01;42.67;100091.63;4939847;28;20074;-93
2023/03/05 10:34:52;;;;;;;28.63;13.93;;;;;;;20.48;42.86;100084.34;4922332;29;20039;-88
2023/03/05 10:37:49;;;;;;;20.35;11.07;;;;;;;20.51;43.36;100078.50;4955715;28;20054;-89
2023/03/05 10:40:29;;;;;;;21.90;13.25;;;;;;;22.11;37.66;100084.38;4943240;29;20394;-89
2023/03/05 10:43:09;;;;;;;29.45;14.77;;;;;;;21.48;39.56;100083.84;4956637;28;20027;-90
2023/03/05 10:45:50;;;;;;;27.83;13.85;;;;;;;22.33;37.38;100081.72;4955853;28;20098;-87
2023/03/05 10:48:58;;;;;;;31.63;14.60;;;;;;;22.17;36.48;100076.34;4958718;28;20136;-90
2023/03/05 10:51:50;;;;;;;27.80;14.45;;;;;;;23.35;34.45;100075.59;4922491;29;20051;-89
2023/03/05 10:54:46;;;;;;;27.27;15.02;;;;;;;23.18;34.58;100076.53;4926766;29;20044;-92
2023/03/05 10:57:23;;;;;;;29.35;15.95;;;;;;;22.57;35.85;100064.19;4901352;29;20081;-88
2023/03/05 10:59:55;;;;;;;26.92;15.52;;;;;;;22.11;36.78;100072.75;4916024;29;20089;-89
2023/03/05 11:02:21;;;;;;;30.42;16.85;;;;;;;22.85;34.26;100071.31;4924757;29;20059;-90
2023/03/05 11:04:48;;;;;;;34.22;16.45;;;;;;;22.09;36.11;100064.91;4945815;29;20043;-89
2023/03/05 11:07:14;;;;;;;30.05;15.38;;;;;;;23.57;33.71;100060.13;4939958;29;20044;-88
2023/03/05 11:09:41;;;;;;;27.38;14.90;;;;;;;23.54;33.91;100063.38;4931131;29;20258;-87
2023/03/05 11:12:18;;;;;;;30.00;15.57;;;;;;;22.88;34.57;100062.69;4931770;29;20102;-88
2023/03/05 11:15:03;;;;;;;29.17;16.13;;;;;;;20.97;37.72;100053.28;4935613;29;20142;-92
2023/03/05 11:17:29;;;;;;;30.27;17.27;;;;;;;20.16;40.15;100033.81;4917269;29;20066;-89
2023/03/05 11:19:57;;;;;;;31.88;17.42;;;;;;;19.13;43.18;100031.59;4931400;29;20083;-89
2023/03/05 11:22:24;;;;;;;37.03;19.38;;;;;;;18.02;46.64;100023.94;4918982;29;20032;-90
2023/03/05 11:25:14;;;;;;;53.30;26.90;;;;;;;17.15;49.52;100024.03;4944468;29;20066;-89